Latest Weather Observations for Ulladulla

IDN60801

Issued at 8:02 pm EST Friday 29 April 2016 (issued every 30 minutes, with the page automatically refreshed every 10 minutes)

About weather observations | Map of weather stations | Latest weather observations for NSW | Other Formats
Station Details ID: 069138 Name: ULLADULLA AWS Lat: -35.36 Lon: 150.48 Height: 35.7 m
Data from the previous 72 hours. | See also: Recent months at Ulladulla
Date/Time
EST
Temp
°C
App
Temp
°C
Dew
Point
Rel
Hum
%
Delta-T
°C
Wind Press
QNH
hPa
Press
MSL
hPa
Rain
since 9 am
mm
Dir
 
Spd
km/h
Gust
km/h
Spd
kts
Gust
kts
29/08:00pm 20.2 20.8 16.8 81 2.1 N 9 15 5 8 1017.3 1017.2 0.0
29/07:30pm 20.3 20.4 17.5 84 1.7 N 13 17 7 9 1017.1 1017.0 0.0
29/07:00pm 20.5 20.3 17.7 84 1.7 N 15 20 8 11 1016.9 1016.8 0.0
29/06:30pm 20.6 20.4 17.6 83 1.8 N 15 22 8 12 1016.9 1016.8 0.0
29/06:00pm 21.0 20.7 17.4 80 2.2 N 15 22 8 12 1016.8 1016.7 0.0
29/05:30pm 21.2 21.1 17.8 81 2.1 N 15 19 8 10 1016.6 1016.5 0.0
29/05:00pm 21.8 21.2 16.7 73 3.1 N 15 22 8 12 1016.3 1016.2 0.0
29/04:30pm 21.2 23.3 18.0 82 2.0 NNE 4 9 2 5 1016.4 1016.3 0.0
29/04:00pm 21.3 21.5 17.7 80 2.2 N 13 19 7 10 1016.3 1016.2 0.0
29/03:30pm 21.6 23.5 17.6 78 2.5 N 4 9 2 5 1016.3 1016.2 0.0
29/03:00pm 21.8 22.1 17.0 74 2.9 N 11 15 6 8 1016.6 1016.5 0.0
29/02:30pm 22.5 23.6 17.2 72 3.3 N 7 15 4 8 1016.6 1016.5 0.0
29/02:00pm 21.9 23.1 17.3 75 2.8 NNE 7 15 4 8 1016.8 1016.7 0.0
29/01:30pm 22.1 24.1 17.9 77 2.6 NNE 4 9 2 5 1017.2 1017.1 0.0
29/01:00pm 22.4 23.3 17.5 74 3.0 NE 9 17 5 9 1017.5 1017.4 0.0
29/12:30pm 22.5 21.1 17.0 71 3.4 NE 20 28 11 15 1018.1 1018.1 0.0
29/12:00pm 22.2 21.7 15.8 67 3.8 NE 13 22 7 12 1018.6 1018.6 0.0
29/11:30am 22.5 22.6 15.6 65 4.1 NE 9 17 5 9 1019.4 1019.4 0.0
29/11:00am 21.7 20.5 16.0 70 3.4 NE 17 24 9 13 1019.7 1019.7 0.0
29/10:30am 22.3 22.7 16.3 69 3.6 NE 9 17 5 9 1020.2 1020.2 0.0
29/10:00am 21.8 21.9 15.6 68 3.7 NE 9 19 5 10 1020.4 1020.4 0.0
29/09:30am 21.6 23.2 16.8 74 2.9 N 4 7 2 4 1020.8 1020.8 0.0
29/09:00am 21.3 21.5 13.2 60 4.6 NNW 4 7 2 4 1021.3 1021.3 0.0
29/08:30am 21.1 21.4 13.5 62 4.4 NW 4 7 2 4 1021.3 1021.3 0.0
29/08:00am 19.3 19.6 13.5 69 3.3 NNW 4 7 2 4 1021.5 1021.5 0.0
29/07:30am 18.9 18.7 13.1 69 3.3 N 6 7 3 4 1021.3 1021.3 0.0
29/07:00am 17.6 17.4 13.1 75 2.5 N 6 7 3 4 1021.0 1021.0 0.0
29/06:30am 17.4 17.2 13.5 78 2.2 N 7 9 4 5 1020.6 1020.6 0.0
29/06:00am 17.0 16.9 13.3 79 2.1 N 6 7 3 4 1020.5 1020.5 0.0
29/05:30am 16.4 17.0 13.1 81 1.8 N 2 4 1 2 1020.6 1020.6 0.0
29/05:00am 16.6 16.4 12.9 79 2.1 NNW 6 6 3 3 1020.4 1020.4 0.0
29/04:30am 17.1 17.9 13.8 81 1.9 NNW 2 6 1 3 1020.5 1020.5 0.0
29/04:00am 18.9 19.0 15.4 80 2.1 N 9 15 5 8 1020.2 1020.2 0.0
29/03:30am 19.2 19.7 15.5 79 2.2 NNW 7 11 4 6 1020.1 1020.1 0.0
29/03:00am 18.1 19.1 15.4 84 1.6 NNE 4 9 2 5 1020.5 1020.5 0.0
29/02:30am 18.3 18.8 15.0 81 1.9 N 6 7 3 4 1020.8 1020.8 0.0
29/02:00am 18.8 19.0 15.7 82 1.8 N 9 13 5 7 1020.8 1020.8 0.0
29/01:30am 18.3 18.7 15.2 82 1.8 N 7 11 4 6 1021.0 1021.0 0.0
29/01:00am 17.8 18.5 14.5 81 1.9 N 4 7 2 4 1021.0 1021.0 0.0
29/12:30am 18.0 18.2 14.7 81 1.9 N 7 9 4 5 1021.4 1021.4 0.0
29/12:00am 17.2 17.5 14.5 84 1.5 N 6 9 3 5 1021.4 1021.4 0.0
 
Date/Time
EST
Temp
°C
App
Temp
°C
Dew
Point
Rel
Hum
%
Delta-T
°C
Wind Press
QNH
hPa
Press
MSL
hPa
Rain
since 9 am
mm
Dir
 
Spd
km/h
Gust
km/h
Spd
kts
Gust
kts
28/11:30pm 18.0 19.1 17.2 95 0.5 NNW 7 11 4 6 1021.3 1021.3 0.0
28/11:00pm 18.1 18.8 16.1 88 1.2 NNW 7 13 4 7 1021.5 1021.5 0.0
28/10:30pm 18.0 18.7 16.2 89 1.1 N 7 11 4 6 1021.5 1021.5 0.0
28/10:00pm 18.2 18.9 16.2 88 1.2 NNW 7 11 4 6 1021.7 1021.7 0.0
28/09:30pm 18.8 19.3 16.6 87 1.3 N 9 13 5 7 1021.6 1021.6 0.0
28/09:00pm 19.0 19.9 17.5 91 0.9 N 9 13 5 7 1021.6 1021.6 0.0
28/08:30pm 19.6 20.2 17.6 88 1.2 N 11 17 6 9 1021.4 1021.4 0.0
28/08:00pm 19.7 20.0 17.1 85 1.6 N 11 17 6 9 1021.4 1021.4 0.0
28/07:30pm 19.9 20.0 16.5 81 2.0 N 11 15 6 8 1021.3 1021.3 0.0
28/07:00pm 20.3 20.2 16.1 77 2.5 N 11 20 6 11 1021.1 1021.1 0.0
28/06:30pm 20.4 20.6 15.8 75 2.7 N 9 11 5 6 1021.0 1021.0 0.0
28/06:00pm 20.7 21.2 16.5 77 2.5 N 9 13 5 7 1020.9 1020.9 0.0
28/05:30pm 21.1 21.4 16.9 77 2.6 N 11 17 6 9 1020.5 1020.5 0.0
28/05:00pm 21.2 22.5 17.6 80 2.2 NNW 7 17 4 9 1020.1 1020.1 0.0
28/04:30pm 21.8 23.4 18.2 80 2.2 NNW 7 11 4 6 1020.1 1020.1 0.0
28/04:00pm 22.5 24.5 17.8 75 2.9 N 4 9 2 5 1020.1 1020.1 0.0
28/03:30pm 22.2 22.6 17.3 74 3.0 NE 11 22 6 12 1020.2 1020.2 0.0
28/03:00pm 23.7 25.6 17.7 69 3.7 NNE 4 9 2 5 1020.1 1020.1 0.0
28/02:30pm 23.6 25.3 17.1 67 4.0 N 4 9 2 5 1020.2 1020.2 0.0
28/02:00pm 23.9 25.8 17.6 68 3.9 N 4 9 2 5 1020.2 1020.2 0.0
28/01:30pm 22.8 23.8 16.4 67 3.9 NNE 6 9 3 5 1020.4 1020.4 0.0
28/01:00pm 22.7 24.4 17.2 71 3.4 NW 4 9 2 5 1020.7 1020.7 0.0
28/12:30pm 22.8 23.7 16.6 68 3.8 NNE 7 15 4 8 1021.0 1021.0 0.0
28/12:00pm 22.4 23.2 16.4 69 3.6 NE 7 15 4 8 1021.4 1021.4 0.0
28/11:30am 21.4 21.5 15.5 69 3.5 N 9 13 5 7 1021.9 1021.9 0.0
28/11:00am 21.5 21.6 15.6 69 3.5 N 9 15 5 8 1022.3 1022.3 0.0
28/10:30am 21.0 20.5 14.9 68 3.6 N 11 17 6 9 1022.6 1022.6 0.0
28/10:00am 20.1 20.2 14.5 70 3.3 N 7 9 4 5 1022.9 1022.9 0.0
28/09:30am 19.8 19.8 14.2 70 3.2 N 7 11 4 6 1023.1 1023.1 0.0
28/09:00am 19.8 20.0 14.6 72 3.0 N 7 11 4 6 1023.2 1023.2 0.0
28/08:30am 18.8 18.7 13.9 73 2.8 N 7 9 4 5 1023.2 1023.2 0.0
28/08:00am 18.2 18.2 14.1 77 2.3 NNW 7 9 4 5 1023.0 1023.0 0.0
28/07:30am 17.0 17.0 13.5 80 2.0 N 6 9 3 5 1022.7 1022.7 0.0
28/07:00am 16.6 16.8 14.1 85 1.4 NNW 6 7 3 4 1022.4 1022.4 0.0
28/06:30am 17.1 17.2 14.4 84 1.5 N 7 9 4 5 1022.2 1022.2 0.0
28/06:00am 17.5 17.9 14.8 84 1.6 N 6 9 3 5 1022.1 1022.1 0.0
28/05:30am 17.3 17.6 14.6 84 1.6 N 6 9 3 5 1022.1 1022.1 0.0
28/05:00am 17.6 17.6 14.3 81 1.9 N 7 9 4 5 1022.0 1022.0 0.0
28/04:30am 18.2 18.2 14.3 78 2.2 N 7 13 4 7 1022.0 1022.0 0.0
28/04:00am 18.8 18.4 14.1 74 2.7 N 9 15 5 8 1022.0 1022.0 0.0
28/03:30am 19.1 18.1 14.6 75 2.6 N 13 22 7 12 1021.8 1021.8 0.0
28/03:00am 19.1 17.7 14.4 74 2.7 N 15 22 8 12 1021.8 1021.8 0.0
28/02:30am 19.1 17.7 14.4 74 2.7 N 15 20 8 11 1022.0 1022.0 0.0
28/02:00am 18.8 18.0 14.1 74 2.7 N 11 20 6 11 1022.0 1022.0 0.0
28/01:30am 19.3 17.8 14.1 72 3.0 N 15 24 8 13 1021.9 1021.9 0.0
28/01:00am 19.2 17.9 14.9 76 2.5 N 15 20 8 11 1022.0 1022.0 0.0
28/12:30am 18.8 19.2 15.3 80 2.1 N 7 13 4 7 1022.2 1022.2 0.0
28/12:00am 18.3 18.9 15.2 82 1.8 N 6 9 3 5 1022.4 1022.4 0.0
 
Date/Time
EST
Temp
°C
App
Temp
°C
Dew
Point
Rel
Hum
%
Delta-T
°C
Wind Press
QNH
hPa
Press
MSL
hPa
Rain
since 9 am
mm
Dir
 
Spd
km/h
Gust
km/h
Spd
kts
Gust
kts
27/11:30pm 18.2 18.5 15.1 82 1.8 N 7 17 4 9 1022.5 1022.5 0.0
27/11:00pm 18.6 18.2 15.1 80 2.0 N 11 20 6 11 1022.7 1022.7 0.0
27/10:30pm 18.8 17.5 15.7 82 1.8 N 17 24 9 13 1022.9 1022.9 0.0
27/10:00pm 18.8 17.2 15.9 83 1.7 N 19 28 10 15 1023.0 1023.0 0.0
27/09:30pm 18.9 17.3 16.0 83 1.7 N 19 28 10 15 1023.1 1023.1 0.0
27/09:00pm 18.3 18.0 15.4 83 1.7 N 11 19 6 10 1023.2 1023.2 0.0
27/08:30pm 18.5 18.2 15.4 82 1.8 N 11 19 6 10 1023.1 1023.1 0.0
27/08:00pm 19.0 18.4 15.7 81 1.9 N 13 22 7 12 1023.0 1023.0 0.0
27/07:30pm 19.1 18.6 15.8 81 2.0 N 13 20 7 11 1022.9 1022.9 0.0
27/07:00pm 19.2 18.7 15.9 81 2.0 N 13 24 7 13 1022.9 1022.9 0.0
27/06:30pm 19.5 18.5 15.6 78 2.3 N 15 24 8 13 1022.7 1022.7 0.0
27/06:00pm 19.9 18.5 15.5 76 2.6 N 17 28 9 15 1022.4 1022.4 0.0
27/05:30pm 20.3 18.2 15.1 72 3.1 N 20 30 11 16 1022.1 1022.1 0.0
27/05:00pm 20.7 20.4 15.5 72 3.1 N 11 19 6 10 1021.8 1021.8 0.0
27/04:30pm 21.1 20.8 15.4 70 3.4 NNE 11 20 6 11 1021.8 1021.8 0.0
27/04:00pm 21.6 21.8 15.7 69 3.5 NNE 9 17 5 9 1021.9 1021.9 0.0
27/03:30pm 21.6 19.6 15.0 66 3.9 NE 19 33 10 18 1021.8 1021.8 0.0
27/03:00pm 21.7 18.3 14.8 65 4.1 NE 26 37 14 20 1021.6 1021.6 0.0
27/02:30pm 21.7 17.3 14.1 62 4.4 NE 30 41 16 22 1021.6 1021.6 0.0
27/02:00pm 21.9 18.5 13.8 60 4.7 NNE 24 35 13 19 1021.8 1021.8 0.0
27/01:30pm 22.0 18.0 13.1 57 5.1 NE 26 33 14 18 1022.1 1022.1 0.0
27/01:00pm 22.4 19.7 11.8 51 5.9 NE 17 28 9 15 1022.6 1022.6 0.0
27/12:30pm 22.6 20.8 12.0 51 6.0 NE 13 22 7 12 1023.1 1023.1 0.0
27/12:00pm 22.6 21.8 12.8 54 5.6 NNE 9 19 5 10 1023.6 1023.6 0.0
27/11:30am 21.7 19.3 11.4 52 5.7 N 15 26 8 14 1024.2 1024.2 0.0
27/11:00am 21.4 17.1 10.9 51 5.8 N 24 33 13 18 1024.6 1024.6 0.0
27/10:30am 21.0 16.8 11.1 53 5.5 N 24 35 13 19 1025.1 1025.1 0.0
27/10:00am 20.8 17.4 11.4 55 5.2 N 20 30 11 16 1025.6 1025.6 0.0
27/09:30am 20.3 17.0 11.0 55 5.1 N 19 28 10 15 1026.2 1026.1 0.0
27/09:00am 19.7 17.2 10.9 57 4.8 NNW 15 24 8 13 1026.7 1026.6 0.0
27/08:30am 19.0 16.5 11.1 60 4.3 NNW 15 24 8 13 1026.9 1026.8 0.0
27/08:00am 18.3 16.2 11.1 63 3.9 NNW 13 20 7 11 1026.7 1026.6 0.0
27/07:30am 16.9 16.0 11.4 70 3.0 NNW 7 13 4 7 1026.7 1026.6 0.0
27/07:00am 16.2 15.5 11.4 73 2.6 NNW 6 9 3 5 1026.3 1026.2 0.0
27/06:30am 16.1 15.4 11.3 73 2.6 N 6 7 3 4 1025.9 1025.8 0.0
27/06:00am 15.7 15.0 11.3 75 2.4 NNW 6 11 3 6 1025.6 1025.6 0.0
27/05:30am 15.9 15.5 12.3 79 2.0 N 6 9 3 5 1025.6 1025.6 0.0
27/05:00am 17.3 16.3 13.4 78 2.2 N 11 17 6 9 1025.5 1025.5 0.0
27/04:30am 17.0 15.5 13.1 78 2.2 N 13 17 7 9 1025.3 1025.3 0.0
27/04:00am 17.2 16.2 13.5 79 2.1 N 11 20 6 11 1025.4 1025.4 0.0
27/03:30am 17.1 16.4 13.2 78 2.2 N 9 19 5 10 1025.7 1025.7 0.0
27/03:00am 17.0 16.6 13.1 78 2.2 NNW 7 13 4 7 1026.1 1026.0 0.0
27/02:30am 17.0 15.8 12.9 77 2.3 NNW 11 19 6 10 1026.4 1026.3 0.0
27/02:00am 17.2 16.4 12.9 76 2.4 NNW 9 17 5 9 1026.7 1026.6 0.0
27/01:30am 17.0 15.8 12.9 77 2.3 NNW 11 15 6 8 1026.9 1026.8 0.0
27/01:00am 16.9 16.1 13.0 78 2.2 NNW 9 15 5 8 1027.1 1027.0 0.0
27/12:30am 16.8 15.8 13.3 80 2.0 NNW 11 15 6 8 1027.2 1027.1 0.0
27/12:00am 16.9 16.0 13.6 81 1.9 NNW 11 19 6 10 1027.5 1027.4 0.0
 
Date/Time
EST
Temp
°C
App
Temp
°C
Dew
Point
Rel
Hum
%
Delta-T
°C
Wind Press
QNH
hPa
Press
MSL
hPa
Rain
since 9 am
mm
Dir
 
Spd
km/h
Gust
km/h
Spd
kts
Gust
kts
26/11:30pm 16.6 16.6 14.1 85 1.4 NNW 7 11 4 6 1027.5 1027.4 0.0
26/11:00pm 16.8 17.0 14.3 85 1.4 N 6 9 3 5 1027.6 1027.5 0.0
26/10:30pm 16.9 17.0 14.4 85 1.4 NNW 7 13 4 7 1027.8 1027.7 0.0
26/10:00pm 17.2 17.3 14.5 84 1.5 NNW 7 13 4 7 1027.8 1027.7 0.0
26/09:30pm 17.2 17.4 14.7 85 1.4 N 7 13 4 7 1027.8 1027.7 0.0
26/09:00pm 17.3 17.5 14.8 85 1.4 NNW 7 11 4 6 1027.7 1027.6 0.0
26/08:30pm 17.6 17.9 14.9 84 1.6 N 7 11 4 6 1027.8 1027.7 0.0

Other Formats:

Comma delimited format used in spreadsheet applications
http://www.bom.gov.au/fwo/IDN60801/IDN60801.94938.axf

JavaScript Object Notation format (JSON) in row-major order
http://www.bom.gov.au/fwo/IDN60801/IDN60801.94938.json